Time;durP1;ratioP1;P1;durP2;ratioP2;P2;SDS_P1;SDS_P2;PMS_P1;PMS_P2;Temp;Humidity;BMP_temperature;BMP_pressure;BME280_temperature;BME280_humidity;BME280_pressure;Samples;Min_cycle;Max_cycle;Signal;HPM_P1;HPM_P2
2022/10/21 00:00:32;;;;;;;41.17;21.92;;;;;;;12.16;100.00;100795.00;4969370;28;20463;-78
2022/10/21 00:02:57;;;;;;;38.58;22.33;;;;;;;12.16;100.00;100787.16;4970665;28;20039;-78
2022/10/21 00:05:22;;;;;;;46.20;21.80;;;;;;;12.16;100.00;100788.06;4970639;28;20190;-78
2022/10/21 00:07:47;;;;;;;43.08;22.50;;;;;;;12.15;100.00;100782.84;4977522;28;20462;-77
2022/10/21 00:10:13;;;;;;;36.50;22.63;;;;;;;12.12;100.00;100785.56;4974738;28;20114;-78
2022/10/21 00:12:38;;;;;;;44.50;21.80;;;;;;;12.10;100.00;100784.78;4972360;28;20386;-78
2022/10/21 00:15:06;;;;;;;45.65;23.80;;;;;;;12.14;100.00;100789.84;4973003;28;20035;-78
2022/10/21 00:17:38;;;;;;;44.30;22.65;;;;;;;12.11;100.00;100792.53;4972030;28;20566;-78
2022/10/21 00:20:06;;;;;;;49.10;23.58;;;;;;;12.11;100.00;100787.31;4971259;28;20069;-78
2022/10/21 00:22:32;;;;;;;43.95;22.48;;;;;;;12.05;100.00;100773.59;4982353;28;20379;-78
2022/10/21 00:24:57;;;;;;;43.92;23.58;;;;;;;12.07;100.00;100777.03;4976900;28;20018;-78
2022/10/21 00:27:22;;;;;;;39.70;23.00;;;;;;;12.09;100.00;100777.81;4972822;28;20500;-78
2022/10/21 00:29:47;;;;;;;40.47;23.00;;;;;;;12.05;100.00;100764.00;4972659;28;20030;-78
2022/10/21 00:32:13;;;;;;;38.63;22.40;;;;;;;12.03;100.00;100764.94;4971894;28;20394;-78
2022/10/21 00:34:41;;;;;;;42.85;23.05;;;;;;;12.07;100.00;100762.19;4972292;28;20467;-78
2022/10/21 00:37:07;;;;;;;43.08;22.58;;;;;;;12.06;100.00;100763.06;4976778;28;20026;-78
2022/10/21 00:39:32;;;;;;;44.17;22.63;;;;;;;12.13;100.00;100766.34;4971236;28;20039;-78
2022/10/21 00:41:59;;;;;;;48.95;25.83;;;;;;;12.15;100.00;100772.41;4972446;28;20055;-78
2022/10/21 00:44:25;;;;;;;42.63;24.40;;;;;;;12.13;100.00;100771.56;4971319;28;20122;-78
2022/10/21 00:47:17;;;;;;;50.97;24.92;;;;;;;12.17;100.00;100773.22;4972443;28;20034;-77
2022/10/21 00:49:54;;;;;;;46.22;24.63;;;;;;;12.21;100.00;100784.44;4964576;28;20046;-78
2022/10/21 00:52:21;;;;;;;46.15;24.63;;;;;;;12.24;100.00;100777.34;4971795;28;20114;-78
2022/10/21 00:54:51;;;;;;;54.70;26.00;;;;;;;12.27;100.00;100766.78;4971573;28;20039;-77
2022/10/21 00:57:19;;;;;;;45.47;25.58;;;;;;;12.26;100.00;100765.09;4972119;28;20030;-77
2022/10/21 00:59:49;;;;;;;48.63;24.13;;;;;;;12.23;100.00;100762.56;4971827;28;20026;-78
2022/10/21 01:02:15;;;;;;;43.05;24.27;;;;;;;12.16;100.00;100758.41;4971777;28;20089;-78
2022/10/21 01:04:40;;;;;;;46.47;25.35;;;;;;;12.12;100.00;100749.81;4971861;28;20066;-78
2022/10/21 01:07:06;;;;;;;49.50;25.15;;;;;;;12.12;100.00;100748.97;4972225;28;20058;-78
2022/10/21 01:09:31;;;;;;;42.03;23.95;;;;;;;12.06;100.00;100739.56;4971100;28;20130;-78
2022/10/21 01:11:57;;;;;;;51.22;25.30;;;;;;;12.01;100.00;100743.25;4972472;28;20026;-78
2022/10/21 01:14:56;;;;;;;40.67;23.20;;;;;;;11.99;100.00;100750.25;4971382;28;20046;-78
2022/10/21 01:17:47;;;;;;;51.30;24.85;;;;;;;11.99;100.00;100740.66;4957905;28;20110;-78
2022/10/21 01:20:48;;;;;;;52.45;26.02;;;;;;;11.96;100.00;100732.91;4963332;28;20121;-78
2022/10/21 01:23:32;;;;;;;46.78;25.02;;;;;;;11.91;100.00;100727.00;4971463;28;20039;-78
2022/10/21 01:26:12;;;;;;;;;;;;;;;11.89;100.00;100720.94;4970320;28;20066;-77
2022/10/21 01:29:26;;;;;;;48.83;23.73;;;;;;;11.83;100.00;100715.88;4973112;28;19929;-78
2022/10/21 01:32:07;;;;;;;47.40;23.33;;;;;;;11.84;100.00;100718.50;4962148;28;20031;-76
2022/10/21 01:34:42;;;;;;;48.58;23.45;;;;;;;11.79;100.00;100709.03;4967878;28;20039;-78
2022/10/21 01:37:20;;;;;;;49.97;23.77;;;;;;;11.76;100.00;100696.06;4970209;28;20022;-78
2022/10/21 01:39:52;;;;;;;47.92;23.20;;;;;;;11.71;100.00;100699.69;4970149;28;20035;-78
2022/10/21 01:42:41;;;;;;;44.05;23.05;;;;;;;11.67;100.00;100699.81;4970344;28;20047;-78
2022/10/21 01:45:20;;;;;;;47.65;23.30;;;;;;;11.66;100.00;100692.88;4967046;28;20038;-78
2022/10/21 01:47:49;;;;;;;47.50;23.55;;;;;;;11.65;100.00;100692.03;4970696;28;20031;-78
2022/10/21 01:50:21;;;;;;;45.60;23.27;;;;;;;11.59;100.00;100686.16;4968469;28;20088;-78
2022/10/21 01:52:51;;;;;;;47.40;23.30;;;;;;;11.61;100.00;100694.81;4971245;28;20039;-78
2022/10/21 01:55:23;;;;;;;46.05;22.58;;;;;;;11.53;100.00;100692.41;4969974;28;20143;-78
2022/10/21 01:57:54;;;;;;;46.38;23.77;;;;;;;11.56;100.00;100678.41;4970431;28;20042;-77
2022/10/21 02:00:19;;;;;;;42.92;23.00;;;;;;;11.55;100.00;100674.09;4965545;28;20027;-78
2022/10/21 02:02:48;;;;;;;48.03;22.83;;;;;;;11.52;100.00;100674.19;4969383;28;20041;-78
2022/10/21 02:05:20;;;;;;;47.72;23.67;;;;;;;11.52;100.00;100676.78;4979779;28;20029;-78
2022/10/21 02:07:47;;;;;;;52.00;22.80;;;;;;;11.47;100.00;100672.53;4973189;28;20054;-78
2022/10/21 02:10:13;;;;;;;46.63;22.67;;;;;;;11.44;100.00;100677.88;4973073;28;20059;-78
2022/10/21 02:12:42;;;;;;;48.03;23.58;;;;;;;11.44;100.00;100672.66;4969796;28;20062;-78
2022/10/21 02:15:09;;;;;;;44.60;22.45;;;;;;;11.44;100.00;100658.72;4971385;28;20030;-78
2022/10/21 02:17:37;;;;;;;46.53;23.20;;;;;;;11.44;100.00;100651.78;4969685;28;20389;-78
2022/10/21 02:20:05;;;;;;;47.97;23.45;;;;;;;11.41;100.00;100649.25;4973538;28;20035;-78
2022/10/21 02:22:32;;;;;;;51.28;23.65;;;;;;;11.42;100.00;100656.19;4971392;28;20034;-78
2022/10/21 02:25:03;;;;;;;48.67;23.65;;;;;;;11.45;100.00;100653.47;4970976;28;20030;-78
2022/10/21 02:27:28;;;;;;;42.80;21.55;;;;;;;11.35;100.00;100645.97;4970596;28;20492;-78
2022/10/21 02:29:57;;;;;;;42.42;22.50;;;;;;;11.35;100.00;100659.03;4973344;28;20143;-78
2022/10/21 02:32:27;;;;;;;43.28;22.02;;;;;;;11.35;100.00;100664.25;4974010;28;20486;-78
2022/10/21 02:35:33;;;;;;;46.45;21.90;;;;;;;11.26;100.00;100647.09;4974726;28;20039;-78
2022/10/21 02:38:19;;;;;;;39.75;20.67;;;;;;;11.30;100.00;100660.91;4974509;28;20038;-78
2022/10/21 02:40:53;;;;;;;42.47;21.90;;;;;;;11.36;100.00;100658.13;4962329;28;20038;-78
2022/10/21 02:43:28;;;;;;;46.55;21.77;;;;;;;11.34;100.00;100657.28;4973787;28;20046;-77
2022/10/21 02:45:58;;;;;;;44.15;22.33;;;;;;;11.37;100.00;100663.28;4974745;28;20463;-78
2022/10/21 02:48:23;;;;;;;46.00;21.30;;;;;;;11.41;100.00;100657.09;4973761;28;20042;-77
2022/10/21 02:50:48;;;;;;;46.88;21.92;;;;;;;11.40;100.00;100649.28;4974862;28;20031;-77
2022/10/21 02:53:14;;;;;;;41.83;20.45;;;;;;;11.39;100.00;100642.38;4973585;28;20027;-78
2022/10/21 02:55:39;;;;;;;43.50;21.20;;;;;;;11.33;100.00;100645.16;4974215;28;20420;-78
2022/10/21 02:58:04;;;;;;;38.70;19.75;;;;;;;11.26;100.00;100644.47;4979368;28;20023;-80
2022/10/21 03:00:30;;;;;;;39.70;20.73;;;;;;;11.28;100.00;100642.69;4973210;28;20035;-78
2022/10/21 03:02:56;;;;;;;44.25;21.05;;;;;;;11.25;100.00;100635.81;4974744;28;20525;-77
2022/10/21 03:05:21;;;;;;;40.72;20.50;;;;;;;11.24;100.00;100639.28;4973784;28;20121;-77
2022/10/21 03:07:46;;;;;;;44.38;20.40;;;;;;;11.23;100.00;100649.78;4973894;28;20023;-78
2022/10/21 03:10:11;;;;;;;39.22;20.13;;;;;;;11.20;100.00;100642.91;4973613;28;20478;-78
2022/10/21 03:12:37;;;;;;;39.20;21.25;;;;;;;11.20;100.00;100640.28;4971959;28;20031;-79
2022/10/21 03:15:02;;;;;;;41.80;20.73;;;;;;;11.18;100.00;100646.44;4974159;28;20022;-79
2022/10/21 03:17:28;;;;;;;38.50;20.52;;;;;;;11.14;100.00;100637.00;4972122;28;20035;-78
2022/10/21 03:19:53;;;;;;;42.25;19.55;;;;;;;11.08;100.00;100624.13;4971789;28;20022;-79
2022/10/21 03:22:18;;;;;;;41.60;19.45;;;;;;;11.09;100.00;100650.19;4970269;28;20099;-78
2022/10/21 03:24:44;;;;;;;34.70;18.77;;;;;;;11.11;100.00;100644.91;4973745;28;20394;-78
2022/10/21 03:27:09;;;;;;;39.28;18.85;;;;;;;11.07;100.00;100654.59;4973650;28;20035;-78
2022/10/21 03:29:34;;;;;;;37.22;18.92;;;;;;;11.05;100.00;100655.53;4981800;28;20084;-78
2022/10/21 03:32:00;;;;;;;37.58;18.30;;;;;;;11.08;100.00;100655.44;4974428;28;20038;-79
2022/10/21 03:34:25;;;;;;;38.58;18.75;;;;;;;11.05;100.00;100652.91;4972228;28;20031;-79
2022/10/21 03:36:51;;;;;;;36.00;18.27;;;;;;;10.95;100.00;100636.66;4973078;28;20031;-79
2022/10/21 03:39:16;;;;;;;37.55;18.63;;;;;;;10.99;100.00;100641.78;4972499;28;20049;-79
2022/10/21 03:41:41;;;;;;;35.42;18.67;;;;;;;10.94;100.00;100634.97;4971399;28;20478;-78
2022/10/21 03:44:07;;;;;;;37.28;18.45;;;;;;;10.76;100.00;100621.56;4971621;28;20035;-78
2022/10/21 03:46:32;;;;;;;38.95;17.83;;;;;;;10.82;100.00;100633.53;4973976;28;20077;-79
2022/10/21 03:48:57;;;;;;;37.42;17.58;;;;;;;10.86;100.00;100636.94;4971801;28;20490;-78
2022/10/21 03:51:22;;;;;;;33.28;17.23;;;;;;;10.81;100.00;100621.41;4971566;28;20031;-78
2022/10/21 03:53:48;;;;;;;29.65;15.93;;;;;;;10.82;100.00;100638.75;4971539;28;20045;-79
2022/10/21 03:56:13;;;;;;;32.42;17.55;;;;;;;10.83;100.00;100639.66;4971948;28;20038;-78
2022/10/21 03:58:39;;;;;;;38.28;17.50;;;;;;;10.81;100.00;100620.56;4972439;28;20031;-78
2022/10/21 04:01:04;;;;;;;34.15;16.85;;;;;;;10.77;100.00;100630.22;4970693;28;20034;-79
2022/10/21 04:03:30;;;;;;;36.92;16.83;;;;;;;10.70;100.00;100619.13;4970213;28;20105;-79
2022/10/21 04:05:55;;;;;;;30.55;15.85;;;;;;;10.66;100.00;100621.81;4973504;28;20113;-78
2022/10/21 04:08:20;;;;;;;39.83;18.02;;;;;;;10.71;100.00;100636.47;4971148;28;20045;-78
2022/10/21 04:10:46;;;;;;;31.90;16.38;;;;;;;10.72;100.00;100637.31;4971629;28;20035;-79
2022/10/21 04:13:11;;;;;;;35.30;16.98;;;;;;;10.72;100.00;100637.31;4969721;28;20431;-79
2022/10/21 04:15:37;;;;;;;30.40;16.50;;;;;;;10.68;100.00;100640.91;4969863;28;20461;-78
2022/10/21 04:18:02;;;;;;;32.85;14.43;;;;;;;10.64;100.00;100634.91;4971081;28;20023;-79
2022/10/21 04:20:27;;;;;;;32.00;15.80;;;;;;;10.71;100.00;100638.22;4971962;28;20022;-79
2022/10/21 04:22:53;;;;;;;34.08;16.60;;;;;;;10.67;100.00;100626.16;4971449;28;20027;-78
2022/10/21 04:25:18;;;;;;;32.53;15.48;;;;;;;10.64;100.00;100634.91;4971743;28;20027;-78
2022/10/21 04:27:43;;;;;;;32.58;14.70;;;;;;;10.58;100.00;100634.22;4971749;28;20050;-79
2022/10/21 04:30:09;;;;;;;28.25;14.35;;;;;;;10.57;100.00;100635.13;4971461;28;20117;-79
2022/10/21 04:32:34;;;;;;;31.95;13.98;;;;;;;10.49;100.00;100646.59;4969988;28;20034;-79
2022/10/21 04:34:59;;;;;;;28.10;13.48;;;;;;;10.48;100.00;100647.50;4968901;28;20037;-79
2022/10/21 04:37:25;;;;;;;29.85;13.75;;;;;;;10.47;100.00;100637.97;4970426;28;20034;-79
2022/10/21 04:39:51;;;;;;;26.60;13.05;;;;;;;10.47;100.00;100637.13;4972065;28;20061;-79
2022/10/21 04:42:16;;;;;;;24.95;12.50;;;;;;;10.50;100.00;100648.31;4971612;28;20039;-78
2022/10/21 04:44:42;;;;;;;26.20;12.95;;;;;;;10.47;100.00;100640.59;4970611;28;20046;-78
2022/10/21 04:47:07;;;;;;;29.05;13.30;;;;;;;10.48;100.00;100652.72;4971447;28;20073;-79
2022/10/21 04:49:32;;;;;;;27.77;11.60;;;;;;;10.50;100.00;100663.97;4970435;28;20038;-78
2022/10/21 04:51:58;;;;;;;29.13;12.48;;;;;;;10.52;100.00;100648.28;4970175;28;20509;-78
2022/10/21 04:54:23;;;;;;;25.15;11.98;;;;;;;10.53;100.00;100642.19;4969575;28;20038;-79
2022/10/21 04:56:48;;;;;;;25.70;11.77;;;;;;;10.48;100.00;100636.22;4971480;28;20029;-79
2022/10/21 04:59:13;;;;;;;23.02;12.05;;;;;;;10.48;100.00;100629.25;4980071;28;20045;-79
2022/10/21 05:01:39;;;;;;;24.00;11.82;;;;;;;10.50;100.00;100640.50;4977452;28;20375;-79
2022/10/21 05:04:04;;;;;;;27.73;11.65;;;;;;;10.52;100.00;100635.25;4972289;28;20382;-79
2022/10/21 05:06:30;;;;;;;27.92;11.45;;;;;;;10.54;100.00;100636.06;4970895;28;20046;-79
2022/10/21 05:08:55;;;;;;;25.83;11.63;;;;;;;10.50;100.00;100643.13;4972350;28;20109;-79
2022/10/21 05:11:20;;;;;;;22.27;10.68;;;;;;;10.43;100.00;100625.94;4971270;28;20066;-79
2022/10/21 05:13:45;;;;;;;20.67;10.43;;;;;;;10.50;100.00;100627.47;4971806;28;20112;-78
2022/10/21 05:16:11;;;;;;;25.83;11.13;;;;;;;10.55;100.00;100633.41;4977848;28;20039;-78
2022/10/21 05:18:36;;;;;;;22.08;10.90;;;;;;;10.54;100.00;100631.72;4971439;28;20363;-78
2022/10/21 05:21:02;;;;;;;23.63;11.43;;;;;;;10.58;100.00;100623.81;4971635;28;20114;-79
2022/10/21 05:23:27;;;;;;;22.85;11.02;;;;;;;10.58;100.00;100616.84;4971199;28;20352;-78
2022/10/21 05:25:52;;;;;;;21.10;10.55;;;;;;;10.50;100.00;100606.63;4972255;28;20034;-79
2022/10/21 05:28:18;;;;;;;24.13;10.95;;;;;;;10.58;100.00;100622.03;4970752;28;20093;-78
2022/10/21 05:30:44;;;;;;;17.67;9.80;;;;;;;10.59;100.00;100615.94;4972093;28;20077;-78
2022/10/21 05:33:09;;;;;;;25.70;10.75;;;;;;;10.57;100.00;100624.72;4971855;28;20031;-78
2022/10/21 05:35:35;;;;;;;22.15;10.50;;;;;;;10.61;100.00;100611.53;4970864;28;20038;-79
2022/10/21 05:38:01;;;;;;;22.95;9.88;;;;;;;10.59;100.00;100596.81;4972008;28;20031;-79
2022/10/21 05:40:26;;;;;;;23.13;10.30;;;;;;;10.58;100.00;100593.38;4971139;28;20031;-78
2022/10/21 05:42:51;;;;;;;24.63;9.32;;;;;;;10.61;100.00;100600.25;4971777;28;20074;-78
2022/10/21 05:45:17;;;;;;;20.58;9.32;;;;;;;10.63;100.00;100595.88;4971153;28;20466;-78
2022/10/21 05:47:42;;;;;;;21.40;9.82;;;;;;;10.62;100.00;100589.78;4971624;28;20031;-79
2022/10/21 05:50:10;;;;;;;26.40;9.77;;;;;;;10.63;100.00;100585.44;4971380;28;20026;-79
2022/10/21 05:52:37;;;;;;;21.02;10.57;;;;;;;10.60;100.00;100593.34;4974486;28;20022;-79
2022/10/21 05:55:03;;;;;;;18.63;9.07;;;;;;;10.60;100.00;100591.59;4971516;28;20030;-79
2022/10/21 05:57:31;;;;;;;18.45;9.30;;;;;;;10.61;100.00;100593.28;4969217;28;20023;-79
2022/10/21 05:59:57;;;;;;;19.58;9.63;;;;;;;10.61;100.00;100590.69;4969261;28;20026;-79
2022/10/21 06:02:22;;;;;;;24.60;9.95;;;;;;;10.67;100.00;100592.28;4960100;28;20097;-79
2022/10/21 06:04:48;;;;;;;16.50;7.82;;;;;;;10.63;100.00;100588.06;4973676;28;20516;-79
2022/10/21 06:07:13;;;;;;;24.50;9.00;;;;;;;10.65;100.00;100588.84;4975763;28;20018;-79
2022/10/21 06:09:38;;;;;;;19.63;9.00;;;;;;;10.65;100.00;100596.66;4974876;28;20097;-78
2022/10/21 06:12:05;;;;;;;17.90;7.57;;;;;;;10.68;100.00;100600.03;4975684;28;20386;-79
2022/10/21 06:14:30;;;;;;;19.13;8.70;;;;;;;10.71;100.00;100596.50;4974283;28;20026;-79
2022/10/21 06:16:56;;;;;;;21.80;7.95;;;;;;;10.72;100.00;100595.59;4973468;28;20042;-78
2022/10/21 06:19:21;;;;;;;22.67;8.45;;;;;;;10.76;100.00;100589.41;4974647;28;20033;-79
2022/10/21 06:21:47;;;;;;;16.77;8.05;;;;;;;10.73;100.00;100579.91;4975016;28;20027;-79
2022/10/21 06:24:12;;;;;;;22.58;7.93;;;;;;;10.78;100.00;100583.22;4974518;28;20062;-78
2022/10/21 06:26:37;;;;;;;19.85;8.90;;;;;;;10.75;100.00;100590.28;4970901;28;20041;-78
2022/10/21 06:29:03;;;;;;;17.83;7.68;;;;;;;10.75;100.00;100593.75;4975248;28;20418;-78
2022/10/21 06:31:28;;;;;;;15.98;7.22;;;;;;;10.75;100.00;100598.13;4972184;28;20022;-78
2022/10/21 06:33:53;;;;;;;19.73;8.02;;;;;;;10.72;100.00;100593.84;4975253;28;20034;-78
2022/10/21 06:36:18;;;;;;;15.20;7.65;;;;;;;10.74;100.00;100599.03;4972576;28;20031;-78
2022/10/21 06:38:44;;;;;;;20.15;7.60;;;;;;;10.77;100.00;100597.19;4974516;28;20382;-78
2022/10/21 06:41:12;;;;;;;18.05;7.93;;;;;;;10.71;100.00;100588.69;4975118;28;20104;-78
2022/10/21 06:43:37;;;;;;;16.55;7.38;;;;;;;10.78;100.00;100611.91;4973828;28;20054;-78
2022/10/21 06:46:06;;;;;;;19.98;7.75;;;;;;;10.85;100.00;100620.44;4972858;28;20130;-78
2022/10/21 06:48:32;;;;;;;18.38;7.72;;;;;;;10.91;100.00;100617.66;4972958;28;20085;-78
2022/10/21 06:50:58;;;;;;;20.75;8.13;;;;;;;10.98;100.00;100613.09;4973964;28;20422;-78
2022/10/21 06:53:24;;;;;;;19.95;8.82;;;;;;;11.09;100.00;100626.72;4973246;28;20066;-78
2022/10/21 06:55:49;;;;;;;20.50;9.18;;;;;;;11.11;100.00;100624.06;4973938;28;20035;-78
2022/10/21 06:58:14;;;;;;;21.52;9.85;;;;;;;11.18;100.00;100634.28;4974085;28;20034;-78
2022/10/21 07:00:39;;;;;;;21.20;9.20;;;;;;;11.25;100.00;100634.97;4973609;28;20030;-78
2022/10/21 07:03:06;;;;;;;21.33;8.70;;;;;;;11.30;100.00;100635.66;4972160;28;20033;-78
2022/10/21 07:05:31;;;;;;;27.42;10.18;;;;;;;11.38;100.00;100649.34;4973317;28;20530;-78
2022/10/21 07:07:56;;;;;;;19.75;8.85;;;;;;;11.42;100.00;100653.56;4972836;28;20114;-78
2022/10/21 07:10:22;;;;;;;20.15;8.75;;;;;;;11.44;100.00;100649.16;4973327;28;20034;-78
2022/10/21 07:12:47;;;;;;;19.67;8.82;;;;;;;11.52;100.00;100656.75;4973795;28;20708;-78
2022/10/21 07:15:13;;;;;;;18.73;8.25;;;;;;;11.56;100.00;100662.75;4971724;28;20424;-76
2022/10/21 07:17:38;;;;;;;19.67;8.18;;;;;;;11.54;100.00;100662.78;4973270;28;20034;-78
2022/10/21 07:20:04;;;;;;;17.33;7.78;;;;;;;11.57;100.00;100659.22;4961671;28;20030;-78
2022/10/21 07:22:30;;;;;;;17.65;7.72;;;;;;;11.60;100.00;100662.59;4971202;28;20386;-77
2022/10/21 07:24:56;;;;;;;16.67;7.10;;;;;;;11.64;100.00;100661.63;4970945;28;20023;-76
2022/10/21 07:27:21;;;;;;;17.85;7.05;;;;;;;11.68;100.00;100655.38;4972571;28;20037;-76
2022/10/21 07:29:46;;;;;;;19.23;7.53;;;;;;;11.75;100.00;100663.88;4973909;28;20034;-75
2022/10/21 07:32:11;;;;;;;15.70;7.53;;;;;;;11.83;100.00;100661.88;4973716;28;20018;-75
2022/10/21 07:34:37;;;;;;;17.17;7.60;;;;;;;11.86;100.00;100655.75;4971497;28;20046;-76
2022/10/21 07:37:02;;;;;;;18.00;7.70;;;;;;;11.92;100.00;100666.84;4969581;28;20026;-75
2022/10/21 07:39:27;;;;;;;13.20;7.50;;;;;;;12.01;100.00;100668.31;4971139;28;20035;-76
2022/10/21 07:41:56;;;;;;;21.77;8.60;;;;;;;12.03;100.00;100676.94;4973296;28;20039;-76
2022/10/21 07:44:22;;;;;;;17.23;7.60;;;;;;;12.11;100.00;100668.88;4970901;28;20101;-76
2022/10/21 07:46:48;;;;;;;18.30;8.43;;;;;;;12.11;100.00;100676.72;4971042;28;20129;-76
2022/10/21 07:49:15;;;;;;;17.52;8.63;;;;;;;12.15;100.00;100678.31;4971704;28;20542;-77
2022/10/21 07:51:41;;;;;;;15.05;8.30;;;;;;;12.14;100.00;100681.84;4973291;28;20101;-76
2022/10/21 07:54:08;;;;;;;19.75;8.93;;;;;;;12.19;100.00;100679.91;4972906;28;20029;-76
2022/10/21 07:56:37;;;;;;;22.30;9.15;;;;;;;12.19;100.00;100678.16;4968093;28;20034;-76
2022/10/21 07:59:03;;;;;;;17.10;8.85;;;;;;;12.22;100.00;100686.81;4956478;28;20065;-77
2022/10/21 08:01:30;;;;;;;19.30;8.50;;;;;;;12.23;100.00;100691.13;4970019;28;20113;-76
2022/10/21 08:03:56;;;;;;;19.40;8.35;;;;;;;12.24;100.00;100678.03;4969805;28;20119;-81
2022/10/21 08:06:24;;;;;;;25.05;9.85;;;;;;;12.28;100.00;100677.00;4971500;28;20445;-77
2022/10/21 08:08:49;;;;;;;16.05;8.43;;;;;;;12.28;100.00;100679.63;4973551;28;20025;-78
2022/10/21 08:11:22;;;;;;;19.83;8.45;;;;;;;12.27;100.00;100672.69;4972670;28;20031;-77
2022/10/21 08:13:47;;;;;;;18.35;8.30;;;;;;;12.26;100.00;100670.13;4971190;28;20106;-77
2022/10/21 08:16:13;;;;;;;15.15;8.23;;;;;;;12.19;100.00;100659.88;4967678;28;20126;-76
2022/10/21 08:18:39;;;;;;;16.98;8.32;;;;;;;12.21;100.00;100675.50;4968857;28;20043;-78
2022/10/21 08:21:05;;;;;;;16.77;7.93;;;;;;;12.19;100.00;100670.31;4969218;28;20031;-79
2022/10/21 08:23:30;;;;;;;13.75;7.75;;;;;;;12.18;100.00;100678.22;4969634;28;20031;-78
2022/10/21 08:25:59;;;;;;;18.60;8.15;;;;;;;12.21;100.00;100692.97;4973022;28;20162;-78
2022/10/21 08:28:26;;;;;;;22.48;8.18;;;;;;;12.22;100.00;100694.66;4971756;28;20438;-78
2022/10/21 08:30:51;;;;;;;21.77;8.68;;;;;;;12.23;100.00;100696.34;4971507;28;20113;-79
2022/10/21 08:33:17;;;;;;;27.77;8.45;;;;;;;12.17;100.00;100687.81;4970064;28;20113;-79
2022/10/21 08:35:42;;;;;;;23.17;9.18;;;;;;;12.23;100.00;100697.25;4971952;28;20038;-79
2022/10/21 08:38:08;;;;;;;18.70;9.40;;;;;;;12.26;100.00;100697.13;4977108;28;20027;-79
2022/10/21 08:40:40;;;;;;;18.60;9.13;;;;;;;12.28;100.00;100686.63;4971936;28;20022;-79
2022/10/21 08:43:31;;;;;;;21.83;9.25;;;;;;;12.31;100.00;100705.66;4972195;28;20062;-79
2022/10/21 08:46:14;;;;;;;22.23;9.50;;;;;;;12.33;100.00;100688.19;4965675;28;20065;-79
2022/10/21 08:49:09;;;;;;;19.67;9.13;;;;;;;12.35;100.00;100695.97;4972135;28;20101;-78
2022/10/21 08:51:40;;;;;;;19.00;9.70;;;;;;;12.36;100.00;100688.09;4973490;28;20027;-78
2022/10/21 08:54:16;;;;;;;20.65;10.00;;;;;;;12.39;100.00;100706.28;4973041;28;20042;-78
2022/10/21 08:56:42;;;;;;;19.80;10.23;;;;;;;12.40;100.00;100720.22;4971876;28;20062;-79
2022/10/21 08:59:22;;;;;;;22.88;9.35;;;;;;;12.42;100.00;100728.84;4972130;28;20030;-80
2022/10/21 09:02:00;;;;;;;19.95;10.27;;;;;;;12.44;100.00;100716.56;4972279;28;20081;-81
2022/10/21 09:04:54;;;;;;;24.73;10.25;;;;;;;12.47;100.00;100726.09;4966217;28;20054;-82
2022/10/21 09:07:24;;;;;;;;;;;;;;;12.48;100.00;100719.94;4969131;28;20397;-84
2022/10/21 09:10:11;;;;;;;21.00;9.95;;;;;;;12.50;100.00;100707.69;4967642;28;19917;-85
2022/10/21 09:12:56;;;;;;;21.85;10.35;;;;;;;12.49;100.00;100703.34;4959980;28;20051;-86
2022/10/21 09:15:26;;;;;;;30.42;10.68;;;;;;;12.55;100.00;100713.59;4971356;28;20034;-85
2022/10/21 09:18:18;;;;;;;19.00;8.40;;;;;;;12.66;100.00;100698.41;4970042;28;20026;-86
2022/10/21 09:21:03;;;;;;;32.25;9.65;;;;;;;12.76;100.00;100698.94;4969505;28;20483;-86
2022/10/21 09:23:47;;;;;;;24.13;8.63;;;;;;;12.91;100.00;100708.00;4958460;28;20027;-83
2022/10/21 09:26:26;;;;;;;17.90;8.10;;;;;;;13.06;100.00;100704.84;4971887;28;20569;-83
2022/10/21 09:28:51;;;;;;;27.00;8.70;;;;;;;13.25;100.00;100705.94;4970111;28;20031;-83
2022/10/21 09:31:19;;;;;;;23.48;8.35;;;;;;;13.44;100.00;100715.69;4970719;28;20114;-82
2022/10/21 09:33:54;;;;;;;21.02;8.02;;;;;;;13.53;100.00;100699.66;4966494;28;20037;-82
2022/10/21 09:36:28;;;;;;;19.65;8.20;;;;;;;13.69;100.00;100703.41;4971490;28;20027;-82
2022/10/21 09:38:59;;;;;;;21.33;8.20;;;;;;;13.75;100.00;100700.53;4973104;28;20033;-82
2022/10/21 09:41:34;;;;;;;20.40;7.68;;;;;;;13.81;100.00;100697.69;4974482;28;20027;-82
2022/10/21 09:44:00;;;;;;;18.70;8.00;;;;;;;13.87;100.00;100695.75;4976040;28;20033;-83
2022/10/21 09:46:25;;;;;;;20.08;8.38;;;;;;;13.90;100.00;100690.41;4974471;28;20113;-82
2022/10/21 09:48:53;;;;;;;17.55;8.63;;;;;;;13.93;100.00;100692.84;4975661;28;20061;-82
2022/10/21 09:51:24;;;;;;;20.40;8.73;;;;;;;14.07;100.00;100700.19;4975472;28;20062;-81
2022/10/21 09:53:53;;;;;;;25.50;8.77;;;;;;;14.14;100.00;100699.88;4974142;28;20438;-81
2022/10/21 09:56:22;;;;;;;21.48;9.05;;;;;;;14.22;100.00;100704.81;4966520;28;20031;-82
2022/10/21 09:58:51;;;;;;;19.45;8.85;;;;;;;14.33;100.00;100707.84;4974563;28;20033;-82
2022/10/21 10:01:19;;;;;;;24.30;9.43;;;;;;;14.39;100.00;100704.13;4975332;28;20133;-82
2022/10/21 10:03:50;;;;;;;22.42;9.32;;;;;;;14.42;100.00;100717.09;4975017;28;20026;-82
2022/10/21 10:06:43;;;;;;;21.77;9.70;;;;;;;14.45;100.00;100712.59;4975223;28;20062;-82
2022/10/21 10:09:16;;;;;;;26.02;9.18;;;;;;;14.49;100.00;100716.78;4973225;28;20027;-81
2022/10/21 10:11:53;;;;;;;19.98;9.90;;;;;;;14.57;100.00;100703.38;4973175;28;20035;-81
2022/10/21 10:14:24;;;;;;;26.90;11.65;;;;;;;14.73;100.00;100708.84;4967587;28;20109;-81
2022/10/21 10:16:49;;;;;;;23.33;10.35;;;;;;;14.78;100.00;100720.00;4973024;28;20082;-80
2022/10/21 10:19:22;;;;;;;23.90;10.95;;;;;;;14.85;100.00;100723.22;4975053;28;20023;-80
2022/10/21 10:22:13;;;;;;;24.63;10.90;;;;;;;14.98;100.00;100719.13;4974558;28;20039;-80
2022/10/21 10:24:43;;;;;;;25.05;12.35;;;;;;;15.09;100.00;100723.91;4972675;28;20474;-81
2022/10/21 10:27:17;;;;;;;25.48;11.55;;;;;;;15.07;100.00;100720.47;4972755;28;20478;-81
2022/10/21 10:29:50;;;;;;;24.33;12.48;;;;;;;15.08;100.00;100709.94;4974688;28;20029;-80
2022/10/21 10:32:16;;;;;;;25.08;13.27;;;;;;;15.23;100.00;100724.97;4963859;28;20592;-79
2022/10/21 10:34:57;;;;;;;25.27;13.90;;;;;;;15.31;100.00;100722.03;4969798;28;20035;-79
2022/10/21 10:37:26;;;;;;;27.70;13.45;;;;;;;15.35;100.00;100717.50;4973152;28;20022;-79
2022/10/21 10:39:55;;;;;;;22.50;12.55;;;;;;;15.36;100.00;100716.56;4974142;28;20027;-79
2022/10/21 10:42:25;;;;;;;19.50;11.60;;;;;;;15.42;100.00;100721.53;4973045;28;20058;-79
2022/10/21 10:44:55;;;;;;;24.08;11.20;;;;;;;15.50;100.00;100727.31;4970254;28;20023;-80
2022/10/21 10:47:33;;;;;;;27.60;11.80;;;;;;;15.60;100.00;100723.34;4973092;28;20510;-80
2022/10/21 10:49:58;;;;;;;15.82;8.95;;;;;;;15.60;100.00;100723.34;4974456;28;20070;-79
2022/10/21 10:52:25;;;;;;;24.33;10.85;;;;;;;15.74;100.00;100721.88;4973688;28;20058;-79
2022/10/21 10:55:16;;;;;;;20.55;9.80;;;;;;;15.85;100.00;100719.59;4973152;28;20027;-79
2022/10/21 10:57:47;;;;;;;17.40;9.52;;;;;;;15.85;100.00;100720.44;4974564;28;20030;-80
2022/10/21 11:00:17;;;;;;;19.50;9.50;;;;;;;15.94;100.00;100719.16;4971583;28;20022;-80
2022/10/21 11:03:00;;;;;;;17.23;10.23;;;;;;;15.99;100.00;100719.78;4973483;28;20418;-79
2022/10/21 11:05:41;;;;;;;15.73;9.77;;;;;;;15.88;100.00;100717.66;4967772;28;20018;-80
2022/10/21 11:08:18;;;;;;;17.45;9.77;;;;;;;15.85;100.00;100706.44;4971454;28;20023;-80
2022/10/21 11:10:53;;;;;;;15.35;8.30;;;;;;;15.76;100.00;100697.22;4972339;28;20359;-79
2022/10/21 11:13:21;;;;;;;19.33;8.30;;;;;;;15.75;100.00;100697.28;4972109;28;20023;-80